Kom — 9HJY5 — position and weather

sailwx.info

Track history (hours):
 
Tides and Currents Weather Stations Pressure Air Temp Water Temp Dewpoint Dewpoint Depression Visibility Wind Speed Wind Dir Waves Ship Positions

Kom

Last reported at 2018-Feb-23 18:21 UTC. Time now 2018-Feb-25 20:06 UTC.
Position N 39°15' W 009°50'.

Length 142 m; draft 8.5 m.

Type: Cargo ship. MMSI: 249890000.

Date/timePositionNaut miles runAvg speedWind from/ knotsBaromVisibWave heightAir tempDewpointWater temp
2018-Feb-23 18:21N 39°15' W 009°50'310.2
2018-Feb-23 18:01N 39°12' W 009°50'510.2
2018-Feb-23 17:30N 39°07' W 009°50'510.3
2018-Feb-23 17:00N 39°02' W 009°50'510.4
2018-Feb-23 16:30N 38°56' W 009°50'510.3
2018-Feb-23 16:00N 38°51' W 009°50'510.5
2018-Feb-23 15:30N 38°46' W 009°50'510.4
2018-Feb-23 15:00N 38°41' W 009°49'510.2
2018-Feb-23 14:30N 38°36' W 009°48'510.6
2018-Feb-23 14:00N 38°31' W 009°46'510.6
2018-Feb-23 13:31N 38°25' W 009°45'510.6
2018-Feb-23 13:00N 38°20' W 009°43'610.5
2018-Feb-23 12:27N 38°15' W 009°42'510.4
2018-Feb-23 12:01N 38°10' W 009°40'510.4
2018-Feb-23 11:31N 38°05' W 009°39'510.2
2018-Feb-23 11:01N 38°00' W 009°37'710.1
2018-Feb-23 10:22N 37°54' W 009°35'410.0
2018-Feb-23 10:01N 37°50' W 009°34'510.3
2018-Feb-23 09:31N 37°45' W 009°33'510.4
2018-Feb-23 09:01N 37°40' W 009°31'510.4
2018-Feb-23 08:31N 37°35' W 009°30'510.4
2018-Feb-23 08:00N 37°30' W 009°29'510.6
2018-Feb-23 07:31N 37°25' W 009°27'510.5
2018-Feb-23 07:00N 37°20' W 009°25'510.3
2018-Feb-23 06:30N 37°15' W 009°24'510.4
2018-Feb-23 06:00N 37°10' W 009°23'510.3
2018-Feb-23 05:30N 37°05' W 009°21'1110.1
2018-Feb-23 04:24N 36°54' W 009°18'16 9.8
2018-Feb-23 02:49N 36°44' W 009°03'410.5
2018-Feb-23 02:27N 36°43' W 008°58'510.3
2018-Feb-23 01:59N 36°42' W 008°53'510.3
2018-Feb-23 01:30N 36°40' W 008°46'161 9.5
2018-Feb-22 08:32N 35°59' W 005°33'1 7.5
2018-Feb-22 08:28N 35°59' W 005°32'4 7.9
2018-Feb-22 08:00N 36°00' W 005°28'4 7.9
2018-Feb-22 07:31N 36°01' W 005°23'4 7.6
2018-Feb-22 07:01N 36°02' W 005°19'4 7.9
2018-Feb-22 06:31N 36°03' W 005°14'5 9.7
2018-Feb-22 05:59N 36°03' W 005°07'  
2018-Feb-18 02:47N 36°14' E 013°51'310.3
2018-Feb-18 02:29N 36°13' E 013°54'510.1
2018-Feb-18 02:00N 36°11' E 013°60'510.1
2018-Feb-18 01:30N 36°09' E 014°06'510.4
2018-Feb-18 01:00N 36°08' E 014°12'510.2
2018-Feb-18 00:31N 36°06' E 014°18'510.4
2018-Feb-18 00:00N 36°03' E 014°23'510.7
2018-Feb-17 23:30N 36°00' E 014°29'510.5
2018-Feb-17 23:00N 35°57' E 014°34'510.4
2018-Feb-17 22:30N 35°55' E 014°40'5 8.9
2018-Feb-17 21:59N 35°53' E 014°45'0 0.1
2018-Feb-17 19:11N 35°53' E 014°45'0 0.0
2018-Feb-17 18:05N 35°53' E 014°45'0 0.1
2018-Feb-17 17:56N 35°53' E 014°45'1 2.5
2018-Feb-17 17:29N 35°54' E 014°46'3 5.5
2018-Feb-17 17:00N 35°52' E 014°48'  
Track history (hours):
 
Tides and Currents Weather Stations Pressure Air Temp Water Temp Dewpoint Dewpoint Depression Visibility Wind Speed Wind Dir Waves Ship Positions

Kom

Last reported at 2018-Feb-23 18:21 UTC. Time now 2018-Feb-25 20:06 UTC.
Position N 39°15' W 009°50'.

Length 142 m; draft 8.5 m.

Type: Cargo ship. MMSI: 249890000.

Date/timePositionNaut miles runAvg speedWind from/ knotsBaromVisibWave heightAir tempDewpointWater temp
2018-Feb-23 18:21N 39°15' W 009°50'310.2
2018-Feb-23 18:01N 39°12' W 009°50'510.2
2018-Feb-23 17:30N 39°07' W 009°50'510.3
2018-Feb-23 17:00N 39°02' W 009°50'510.4
2018-Feb-23 16:30N 38°56' W 009°50'510.3
2018-Feb-23 16:00N 38°51' W 009°50'510.5
2018-Feb-23 15:30N 38°46' W 009°50'510.4
2018-Feb-23 15:00N 38°41' W 009°49'510.2
2018-Feb-23 14:30N 38°36' W 009°48'510.6
2018-Feb-23 14:00N 38°31' W 009°46'510.6
2018-Feb-23 13:31N 38°25' W 009°45'510.6
2018-Feb-23 13:00N 38°20' W 009°43'610.5
2018-Feb-23 12:27N 38°15' W 009°42'510.4
2018-Feb-23 12:01N 38°10' W 009°40'510.4
2018-Feb-23 11:31N 38°05' W 009°39'510.2
2018-Feb-23 11:01N 38°00' W 009°37'710.1
2018-Feb-23 10:22N 37°54' W 009°35'410.0
2018-Feb-23 10:01N 37°50' W 009°34'510.3
2018-Feb-23 09:31N 37°45' W 009°33'510.4
2018-Feb-23 09:01N 37°40' W 009°31'510.4
2018-Feb-23 08:31N 37°35' W 009°30'510.4
2018-Feb-23 08:00N 37°30' W 009°29'510.6
2018-Feb-23 07:31N 37°25' W 009°27'510.5
2018-Feb-23 07:00N 37°20' W 009°25'510.3
2018-Feb-23 06:30N 37°15' W 009°24'510.4
2018-Feb-23 06:00N 37°10' W 009°23'510.3
2018-Feb-23 05:30N 37°05' W 009°21'1110.1
2018-Feb-23 04:24N 36°54' W 009°18'16 9.8
2018-Feb-23 02:49N 36°44' W 009°03'410.5
2018-Feb-23 02:27N 36°43' W 008°58'510.3
2018-Feb-23 01:59N 36°42' W 008°53'510.3
2018-Feb-23 01:30N 36°40' W 008°46'161 9.5
2018-Feb-22 08:32N 35°59' W 005°33'1 7.5
2018-Feb-22 08:28N 35°59' W 005°32'4 7.9
2018-Feb-22 08:00N 36°00' W 005°28'4 7.9
2018-Feb-22 07:31N 36°01' W 005°23'4 7.6
2018-Feb-22 07:01N 36°02' W 005°19'4 7.9
2018-Feb-22 06:31N 36°03' W 005°14'5 9.7
2018-Feb-22 05:59N 36°03' W 005°07'  
2018-Feb-18 02:47N 36°14' E 013°51'310.3
2018-Feb-18 02:29N 36°13' E 013°54'510.1
2018-Feb-18 02:00N 36°11' E 013°60'510.1
2018-Feb-18 01:30N 36°09' E 014°06'510.4
2018-Feb-18 01:00N 36°08' E 014°12'510.2
2018-Feb-18 00:31N 36°06' E 014°18'510.4
2018-Feb-18 00:00N 36°03' E 014°23'510.7
2018-Feb-17 23:30N 36°00' E 014°29'510.5
2018-Feb-17 23:00N 35°57' E 014°34'510.4
2018-Feb-17 22:30N 35°55' E 014°40'5 8.9
2018-Feb-17 21:59N 35°53' E 014°45'0 0.1
2018-Feb-17 19:11N 35°53' E 014°45'0 0.0
2018-Feb-17 18:05N 35°53' E 014°45'0 0.1
2018-Feb-17 17:56N 35°53' E 014°45'1 2.5
2018-Feb-17 17:29N 35°54' E 014°46'3 5.5
2018-Feb-17 17:00N 35°52' E 014°48'  

Dump ship's entire track history